createdAt,value
2022-11-27T00:01:41.842Z,74.30
2022-11-27T00:04:12.028Z,67.20
2022-11-27T00:06:43.424Z,61.00
2022-11-27T00:09:18.041Z,69.20
2022-11-27T00:11:45.997Z,66.20
2022-11-27T00:14:19.104Z,64.70
2022-11-27T00:16:47.097Z,61.00
2022-11-27T00:19:15.057Z,60.60
2022-11-27T00:21:43.193Z,65.00
2022-11-27T00:24:14.702Z,62.50
2022-11-27T00:26:42.766Z,62.50
2022-11-27T00:29:10.466Z,65.70
2022-11-27T00:31:38.504Z,61.80
2022-11-27T00:34:10.261Z,63.70
2022-11-27T00:36:46.606Z,66.90
2022-11-27T00:39:19.316Z,67.60
2022-11-27T00:41:47.154Z,69.40
2022-11-27T00:44:14.952Z,66.10
2022-11-27T00:46:42.834Z,73.60
2022-11-27T00:49:13.620Z,73.50
2022-11-27T00:51:44.423Z,58.90
2022-11-27T00:54:12.156Z,64.00
2022-11-27T00:56:41.900Z,76.70
2022-11-27T00:59:11.089Z,62.90
2022-11-27T01:01:44.199Z,69.50
2022-11-27T01:04:16.863Z,53.60
2022-11-27T01:06:48.378Z,69.50
2022-11-27T01:09:16.945Z,70.50
2022-11-27T01:11:46.147Z,69.20
2022-11-27T01:14:19.218Z,64.00
2022-11-27T01:16:46.985Z,72.40
2022-11-27T01:19:17.870Z,72.70
2022-11-27T01:21:49.341Z,69.10
2022-11-27T01:24:20.707Z,73.90
2022-11-27T01:26:49.839Z,67.60
2022-11-27T01:29:17.592Z,64.40
2022-11-27T01:31:45.674Z,68.90
2022-11-27T01:34:19.399Z,70.60
2022-11-27T01:36:49.058Z,67.40
2022-11-27T01:39:21.567Z,66.10
2022-11-27T01:41:50.044Z,64.60
2022-11-27T01:44:28.435Z,64.20
2022-11-27T01:47:15.552Z,56.00
2022-11-27T01:49:53.861Z,60.90
2022-11-27T01:52:36.404Z,60.50
2022-11-27T01:55:20.802Z,64.70
2022-11-27T01:58:02.529Z,58.30
2022-11-27T02:00:30.324Z,56.40
2022-11-27T02:02:58.356Z,56.90
2022-11-27T02:05:33.564Z,53.60
2022-11-27T02:08:10.205Z,57.70
2022-11-27T02:10:53.822Z,57.90
2022-11-27T02:13:41.225Z,55.10
2022-11-27T02:16:37.527Z,58.90
2022-11-27T02:19:37.757Z,59.90
2022-11-27T02:22:33.841Z,57.70
2022-11-27T02:25:28.614Z,54.90
2022-11-27T02:28:20.073Z,56.60
2022-11-27T02:30:58.083Z,57.70
2022-11-27T02:33:34.656Z,57.40
2022-11-27T02:36:12.531Z,57.20
2022-11-27T02:39:01.932Z,58.00
2022-11-27T02:41:38.823Z,59.20
2022-11-27T02:44:12.994Z,60.20
2022-11-27T02:46:44.872Z,59.70
2022-11-27T02:49:19.167Z,64.00
2022-11-27T02:51:55.627Z,70.40
2022-11-27T02:54:31.656Z,65.40
2022-11-27T02:57:04.946Z,67.50
2022-11-27T02:59:37.234Z,60.70
2022-11-27T03:02:22.514Z,63.60
2022-11-27T03:04:56.511Z,69.30
2022-11-27T03:07:41.439Z,62.90
2022-11-27T03:10:47.224Z,61.10
2022-11-27T03:13:18.066Z,60.90
2022-11-27T03:16:05.572Z,60.60
2022-11-27T03:18:47.726Z,66.60
2022-11-27T03:21:43.704Z,61.40
2022-11-27T03:24:13.595Z,63.50
2022-11-27T03:26:44.780Z,59.70
2022-11-27T03:29:38.711Z,60.80
2022-11-27T03:32:12.964Z,71.70
2022-11-27T03:34:43.185Z,69.60
2022-11-27T03:37:11.705Z,71.80
2022-11-27T03:39:42.504Z,68.80
2022-11-27T03:42:41.657Z,67.70
2022-11-27T03:45:21.579Z,67.50
2022-11-27T03:48:14.479Z,69.60
2022-11-27T03:50:51.254Z,66.60
2022-11-27T03:53:47.481Z,69.70
2022-11-27T03:56:44.434Z,69.20
2022-11-27T03:59:20.554Z,70.70
2022-11-27T04:01:51.028Z,74.50
2022-11-27T04:04:19.013Z,60.60
2022-11-27T04:06:46.948Z,71.40
2022-11-27T04:09:15.471Z,77.30
2022-11-27T04:11:43.473Z,70.60
2022-11-27T04:14:11.436Z,66.30
2022-11-27T04:16:39.256Z,74.50
2022-11-27T04:19:09.725Z,71.30
2022-11-27T04:21:37.666Z,76.00
2022-11-27T04:24:05.534Z,69.60
2022-11-27T04:26:33.253Z,62.20
2022-11-27T04:29:01.058Z,57.20
2022-11-27T04:31:28.863Z,51.30
2022-11-27T04:33:56.626Z,53.50
2022-11-27T04:36:24.393Z,46.90
2022-11-27T04:38:52.106Z,42.10
2022-11-27T04:41:19.844Z,50.30
2022-11-27T04:43:47.550Z,48.00
2022-11-27T04:46:15.574Z,45.20
2022-11-27T04:48:46.439Z,45.20
2022-11-27T04:51:14.216Z,47.80
2022-11-27T04:53:45.044Z,44.40
2022-11-27T04:56:12.749Z,47.20
2022-11-27T04:58:40.982Z,43.10
2022-11-27T05:01:12.876Z,44.20
2022-11-27T05:03:40.900Z,40.70
2022-11-27T05:06:12.481Z,42.90
2022-11-27T05:08:40.295Z,40.40
2022-11-27T05:11:15.602Z,39.70
2022-11-27T05:13:47.326Z,45.00
2022-11-27T05:16:15.253Z,44.60
2022-11-27T05:18:46.523Z,40.30
2022-11-27T05:21:14.291Z,42.40
2022-11-27T05:23:42.011Z,42.00
2022-11-27T05:26:09.755Z,43.80
2022-11-27T05:28:37.491Z,45.10
2022-11-27T05:31:05.398Z,43.60
2022-11-27T05:33:38.463Z,44.40
2022-11-27T05:36:06.598Z,39.40
2022-11-27T05:38:34.321Z,42.80
2022-11-27T05:41:02.064Z,45.40
2022-11-27T05:43:30.021Z,45.80
2022-11-27T05:45:57.866Z,44.80
2022-11-27T05:48:25.639Z,45.60
2022-11-27T05:50:53.433Z,48.50
2022-11-27T05:53:21.127Z,44.70
2022-11-27T05:55:48.886Z,54.50
2022-11-27T05:58:20.304Z,49.20
2022-11-27T06:00:48.040Z,49.00
2022-11-27T06:03:15.804Z,54.60
2022-11-27T06:05:47.298Z,49.70
2022-11-27T06:08:15.078Z,53.70
2022-11-27T06:10:43.062Z,57.50
2022-11-27T06:13:16.597Z,50.80
2022-11-27T06:15:44.583Z,47.50
2022-11-27T06:18:16.458Z,53.20
2022-11-27T06:20:46.774Z,51.10
2022-11-27T06:23:19.103Z,50.00
2022-11-27T06:25:50.517Z,54.40
2022-11-27T06:28:18.493Z,52.20
2022-11-27T06:30:49.879Z,55.20
2022-11-27T06:33:17.840Z,54.20
2022-11-27T06:35:45.801Z,57.40
2022-11-27T06:38:13.542Z,54.50
2022-11-27T06:40:41.540Z,57.00
2022-11-27T06:43:09.275Z,58.30
2022-11-27T06:45:37.047Z,54.60
2022-11-27T06:48:05.078Z,52.30
2022-11-27T06:50:34.568Z,52.90
2022-11-27T06:53:02.314Z,57.10
2022-11-27T06:55:30.046Z,55.30
2022-11-27T06:57:57.998Z,52.10
2022-11-27T07:00:25.916Z,53.00
2022-11-27T07:02:59.451Z,55.50
2022-11-27T07:05:30.916Z,51.80
2022-11-27T07:08:02.657Z,55.00
2022-11-27T07:10:36.730Z,56.30
2022-11-27T07:13:04.616Z,56.20
2022-11-27T07:15:36.454Z,56.90
2022-11-27T07:18:04.445Z,52.10
2022-11-27T07:20:35.870Z,57.30
2022-11-27T07:23:03.590Z,55.90
2022-11-27T07:25:40.157Z,58.30
2022-11-27T07:28:08.110Z,44.70
2022-11-27T07:30:35.907Z,52.60
2022-11-27T07:33:07.470Z,52.90
2022-11-27T07:35:35.482Z,54.60
2022-11-27T07:38:03.216Z,57.40
2022-11-27T07:40:30.953Z,59.20
2022-11-27T07:43:00.447Z,53.40
2022-11-27T07:45:28.592Z,53.80
2022-11-27T07:47:59.177Z,55.70
2022-11-27T07:50:28.725Z,54.00
2022-11-27T07:52:56.456Z,53.90
2022-11-27T07:55:24.241Z,59.40
2022-11-27T07:57:51.955Z,54.10
2022-11-27T08:00:23.341Z,56.00
2022-11-27T08:02:51.136Z,52.70
2022-11-27T08:05:20.709Z,55.50
2022-11-27T08:07:55.389Z,54.20
2022-11-27T08:10:23.188Z,57.60
2022-11-27T08:12:51.168Z,54.00
2022-11-27T08:15:19.163Z,55.60
2022-11-27T08:17:46.918Z,59.00
2022-11-27T08:20:14.753Z,59.40
2022-11-27T08:22:42.538Z,53.30
2022-11-27T08:25:10.283Z,60.60
2022-11-27T08:27:38.093Z,59.50
2022-11-27T08:30:10.109Z,51.60
2022-11-27T08:32:41.676Z,53.90
2022-11-27T08:35:11.755Z,56.60
2022-11-27T08:37:44.187Z,57.10
2022-11-27T08:40:12.094Z,55.70
2022-11-27T08:42:40.079Z,59.50
2022-11-27T08:45:09.028Z,60.40
2022-11-27T08:47:36.900Z,60.10
2022-11-27T08:50:09.062Z,55.40
2022-11-27T08:52:36.924Z,57.70
2022-11-27T08:55:05.104Z,58.20
2022-11-27T08:57:32.915Z,62.00
2022-11-27T09:00:00.759Z,59.80
2022-11-27T09:02:28.562Z,55.50
2022-11-27T09:05:02.737Z,59.50
2022-11-27T09:07:30.524Z,55.00
2022-11-27T09:09:58.350Z,57.20
2022-11-27T09:12:29.911Z,58.00
2022-11-27T09:14:57.634Z,55.70
2022-11-27T09:17:25.429Z,53.10
2022-11-27T09:19:53.211Z,51.30
2022-11-27T09:22:20.983Z,59.40
2022-11-27T09:24:48.818Z,54.30
2022-11-27T09:27:16.512Z,52.70
2022-11-27T09:29:44.495Z,51.90
2022-11-27T09:32:12.834Z,49.40
2022-11-27T09:34:41.099Z,50.80
2022-11-27T09:37:09.423Z,51.20
2022-11-27T09:39:38.604Z,55.80
2022-11-27T09:42:18.791Z,51.90
2022-11-27T09:44:58.115Z,48.70
2022-11-27T09:47:39.814Z,50.90
2022-11-27T09:50:24.921Z,52.60
2022-11-27T09:53:01.590Z,46.70
2022-11-27T09:55:41.663Z,43.50
2022-11-27T09:58:38.096Z,47.70
2022-11-27T10:01:14.614Z,50.30
2022-11-27T10:03:48.161Z,46.30
2022-11-27T10:06:46.481Z,47.50
2022-11-27T10:09:49.298Z,51.70
2022-11-27T10:12:35.739Z,48.00
2022-11-27T10:15:19.416Z,50.20
2022-11-27T10:17:57.881Z,48.70
2022-11-27T10:20:34.076Z,49.70
2022-11-27T10:23:23.978Z,48.10
2022-11-27T10:25:59.043Z,47.40
2022-11-27T10:29:13.207Z,42.00
2022-11-27T10:31:47.057Z,43.90
2022-11-27T10:34:45.114Z,43.30
2022-11-27T10:37:13.133Z,40.70
2022-11-27T10:39:50.785Z,45.90
2022-11-27T10:42:44.672Z,37.40
2022-11-27T10:45:35.554Z,36.20
2022-11-27T10:48:03.733Z,39.10
2022-11-27T10:50:31.611Z,35.30
2022-11-27T10:53:12.106Z,37.80
2022-11-27T10:56:15.585Z,40.20
2022-11-27T10:59:06.061Z,39.30
2022-11-27T11:01:55.080Z,40.70
2022-11-27T11:04:38.717Z,36.00
2022-11-27T11:07:30.009Z,37.40
2022-11-27T11:09:57.900Z,37.20
2022-11-27T11:12:25.913Z,39.20
2022-11-27T11:15:02.346Z,36.90
2022-11-27T11:17:41.854Z,36.50
2022-11-27T11:20:26.103Z,40.00
2022-11-27T11:22:56.568Z,39.50
2022-11-27T11:25:24.543Z,36.90
2022-11-27T11:27:56.629Z,35.50
2022-11-27T11:30:29.939Z,34.70
2022-11-27T11:33:06.844Z,33.40
2022-11-27T11:35:39.129Z,33.40
2022-11-27T11:38:18.348Z,34.90
2022-11-27T11:41:05.410Z,35.40
2022-11-27T11:43:38.596Z,38.40
2022-11-27T11:46:17.482Z,35.40
2022-11-27T11:49:26.823Z,36.60
2022-11-27T11:52:27.676Z,39.20
2022-11-27T11:55:29.483Z,34.10
2022-11-27T11:58:12.522Z,46.80
2022-11-27T12:01:28.043Z,39.00
2022-11-27T12:03:59.607Z,40.50
2022-11-27T12:06:38.684Z,39.80
2022-11-27T12:09:38.205Z,39.00
2022-11-27T12:12:32.683Z,36.90
2022-11-27T12:15:08.948Z,36.70
2022-11-27T12:18:03.778Z,33.40
2022-11-27T12:20:39.746Z,36.70
2022-11-27T12:23:23.012Z,37.20
2022-11-27T12:26:07.921Z,38.70
2022-11-27T12:28:40.296Z,33.10
2022-11-27T12:31:29.991Z,37.50
2022-11-27T12:34:28.838Z,34.80
2022-11-27T12:37:14.743Z,35.80
2022-11-27T12:40:13.919Z,38.90
2022-11-27T12:43:20.255Z,39.40
2022-11-27T12:45:57.394Z,38.40
2022-11-27T12:48:36.790Z,39.00
2022-11-27T12:51:30.267Z,46.40
2022-11-27T12:54:14.541Z,46.30
2022-11-27T12:56:55.516Z,42.50
2022-11-27T12:59:40.520Z,38.80
2022-11-27T13:02:27.031Z,41.20
2022-11-27T13:05:24.835Z,43.80
2022-11-27T13:08:10.771Z,38.50
2022-11-27T13:10:53.439Z,42.30
2022-11-27T13:13:35.659Z,42.40
2022-11-27T13:16:11.147Z,43.20
2022-11-27T13:18:52.192Z,44.20
2022-11-27T13:21:30.182Z,45.30
2022-11-27T13:24:03.037Z,45.00
2022-11-27T13:26:48.804Z,45.50
2022-11-27T13:29:41.234Z,48.00
2022-11-27T13:32:19.911Z,51.10
2022-11-27T13:34:51.542Z,53.90
2022-11-27T13:37:41.344Z,50.50
2022-11-27T13:40:40.794Z,52.50
2022-11-27T13:43:40.712Z,54.90
2022-11-27T13:46:25.272Z,54.40
2022-11-27T13:49:03.484Z,51.90
2022-11-27T13:51:39.468Z,52.00
2022-11-27T13:54:17.129Z,51.00
2022-11-27T13:56:46.322Z,52.60
2022-11-27T13:59:25.561Z,53.90
2022-11-27T14:02:07.145Z,51.20
2022-11-27T14:04:35.892Z,54.00
2022-11-27T14:07:13.742Z,54.90
2022-11-27T14:09:47.175Z,51.90
2022-11-27T14:12:33.170Z,54.40
2022-11-27T14:15:07.967Z,50.70
2022-11-27T14:17:42.493Z,50.10
2022-11-27T14:20:11.955Z,60.80
2022-11-27T14:23:14.744Z,55.20
2022-11-27T14:25:42.672Z,55.80
2022-11-27T14:28:22.041Z,54.40
2022-11-27T14:30:55.660Z,55.80
2022-11-27T14:33:27.651Z,56.80
2022-11-27T14:35:58.030Z,59.00
2022-11-27T14:38:29.048Z,55.70
2022-11-27T14:41:20.289Z,55.80
2022-11-27T14:44:15.003Z,53.40
2022-11-27T14:46:42.919Z,57.30
2022-11-27T14:49:26.217Z,55.10
2022-11-27T14:52:01.322Z,51.60
2022-11-27T14:54:35.644Z,54.50
2022-11-27T14:57:08.774Z,54.10
2022-11-27T14:59:36.526Z,56.70
2022-11-27T15:02:07.088Z,59.50
2022-11-27T15:04:39.143Z,56.80
2022-11-27T15:07:29.510Z,55.00
2022-11-27T15:10:05.187Z,55.20
2022-11-27T15:12:50.136Z,57.90
2022-11-27T15:15:30.305Z,53.90
2022-11-27T15:18:00.839Z,55.00
2022-11-27T15:20:42.034Z,56.50
2022-11-27T15:23:28.885Z,62.20
2022-11-27T15:25:59.930Z,57.50
2022-11-27T15:28:43.438Z,56.30
2022-11-27T15:31:35.244Z,56.70
2022-11-27T15:34:23.712Z,54.80
2022-11-27T15:37:01.677Z,70.10
2022-11-27T15:39:52.703Z,73.80
2022-11-27T15:42:24.684Z,85.10
2022-11-27T15:44:58.353Z,89.70
2022-11-27T15:47:37.339Z,77.10
2022-11-27T15:50:15.115Z,84.50
2022-11-27T15:52:44.959Z,83.70
2022-11-27T15:55:18.921Z,71.10
2022-11-27T15:57:47.199Z,63.90
2022-11-27T16:00:22.141Z,70.90
2022-11-27T16:02:50.052Z,79.40
2022-11-27T16:05:22.034Z,81.10
2022-11-27T16:07:54.727Z,95.20
2022-11-27T16:10:24.090Z,129.90
2022-11-27T16:12:57.454Z,94.70
2022-11-27T16:15:30.041Z,87.80
2022-11-27T16:18:01.209Z,97.60
2022-11-27T16:20:28.962Z,99.10
2022-11-27T16:22:56.861Z,82.20
2022-11-27T16:25:25.811Z,82.70
2022-11-27T16:27:59.389Z,87.00
2022-11-27T16:30:34.810Z,98.50
2022-11-27T16:33:03.225Z,98.90
2022-11-27T16:35:30.969Z,97.60
2022-11-27T16:37:58.995Z,92.50
2022-11-27T16:40:27.529Z,88.70
2022-11-27T16:42:55.278Z,88.00
2022-11-27T16:45:23.107Z,84.20
2022-11-27T16:47:51.229Z,82.30
2022-11-27T16:50:19.056Z,76.80
2022-11-27T16:52:53.986Z,76.00
2022-11-27T16:55:23.167Z,83.40
2022-11-27T16:57:51.568Z,72.20
2022-11-27T17:00:19.684Z,82.90
2022-11-27T17:02:47.492Z,76.00
2022-11-27T17:05:15.404Z,76.80
2022-11-27T17:07:43.185Z,78.50
2022-11-27T17:10:11.046Z,78.00
2022-11-27T17:12:39.279Z,82.90
2022-11-27T17:15:07.611Z,77.90
2022-11-27T17:17:40.096Z,85.30
2022-11-27T17:20:08.878Z,89.90
2022-11-27T17:22:36.731Z,87.10
2022-11-27T17:25:05.830Z,91.30
2022-11-27T17:27:34.814Z,88.00
2022-11-27T17:30:02.577Z,84.40
2022-11-27T17:32:30.465Z,86.10
2022-11-27T17:34:58.208Z,89.00
2022-11-27T17:37:26.027Z,83.80
2022-11-27T17:39:54.022Z,90.80
2022-11-27T17:42:22.961Z,83.10
2022-11-27T17:44:52.349Z,78.30
2022-11-27T17:47:20.151Z,86.70
2022-11-27T17:49:47.948Z,91.60
2022-11-27T17:52:15.750Z,94.00
2022-11-27T17:54:43.479Z,95.00
2022-11-27T17:57:11.239Z,101.50
2022-11-27T17:59:39.271Z,100.40
2022-11-27T18:02:12.463Z,111.00
2022-11-27T18:04:41.775Z,117.80
2022-11-27T18:07:12.200Z,115.90
2022-11-27T18:09:40.448Z,110.60
2022-11-27T18:12:09.138Z,119.50
2022-11-27T18:14:37.015Z,124.20
2022-11-27T18:17:05.298Z,121.80
2022-11-27T18:19:34.119Z,121.40
2022-11-27T18:22:03.330Z,125.10
2022-11-27T18:24:31.080Z,132.70
2022-11-27T18:27:14.312Z,133.80
2022-11-27T18:29:45.476Z,120.60
2022-11-27T18:32:17.607Z,117.10
2022-11-27T18:34:46.588Z,125.10
2022-11-27T18:37:14.423Z,128.20
2022-11-27T18:39:45.252Z,135.80
2022-11-27T18:42:15.362Z,144.40
2022-11-27T18:44:45.397Z,137.80
2022-11-27T18:47:16.203Z,122.20
2022-11-27T18:49:45.220Z,123.50
2022-11-27T18:52:14.228Z,130.00
2022-11-27T18:54:44.211Z,140.00
2022-11-27T18:57:11.991Z,136.50
2022-11-27T18:59:44.371Z,133.10
2022-11-27T19:02:40.584Z,136.80
2022-11-27T19:05:09.905Z,136.10
2022-11-27T19:07:38.293Z,143.50
2022-11-27T19:10:07.317Z,135.90
2022-11-27T19:12:37.787Z,144.50
2022-11-27T19:15:06.071Z,140.70
2022-11-27T19:17:33.915Z,146.00
2022-11-27T19:20:01.886Z,147.70
2022-11-27T19:22:29.661Z,129.30
2022-11-27T19:24:57.473Z,120.10
2022-11-27T19:27:25.576Z,116.40
2022-11-27T19:29:53.889Z,116.00
2022-11-27T19:32:21.763Z,112.00
2022-11-27T19:34:50.894Z,116.00
2022-11-27T19:37:33.166Z,114.00
2022-11-27T19:40:02.196Z,112.40
2022-11-27T19:42:31.448Z,118.70
2022-11-27T19:44:59.252Z,115.20
2022-11-27T19:47:27.035Z,110.70
2022-11-27T19:49:56.040Z,115.50
2022-11-27T19:52:23.796Z,112.70
2022-11-27T19:54:51.652Z,112.90
2022-11-27T19:57:19.463Z,112.90
2022-11-27T19:59:47.318Z,111.30
2022-11-27T20:02:15.457Z,113.30
2022-11-27T20:04:44.163Z,112.10
2022-11-27T20:07:12.364Z,117.00
2022-11-27T20:09:40.163Z,114.30
2022-11-27T20:12:07.948Z,113.30
2022-11-27T20:14:36.053Z,123.00
2022-11-27T20:17:03.973Z,110.50
2022-11-27T20:19:31.859Z,113.90
2022-11-27T20:21:59.752Z,121.70
2022-11-27T20:24:27.540Z,119.90
2022-11-27T20:26:55.456Z,114.80
2022-11-27T20:29:23.265Z,112.60
2022-11-27T20:31:51.284Z,115.20
2022-11-27T20:34:22.338Z,112.50
2022-11-27T20:36:50.410Z,114.10
2022-11-27T20:39:21.720Z,115.90
2022-11-27T20:41:51.839Z,113.50
2022-11-27T20:44:22.522Z,117.20
2022-11-27T20:46:50.728Z,118.80
2022-11-27T20:49:18.564Z,120.20
2022-11-27T20:51:49.119Z,117.30
2022-11-27T20:54:18.273Z,112.10
2022-11-27T20:56:46.801Z,117.00
2022-11-27T20:59:14.709Z,110.30
2022-11-27T21:01:42.649Z,114.30
2022-11-27T21:04:19.897Z,134.80
2022-11-27T21:06:48.236Z,131.50
2022-11-27T21:09:17.090Z,136.10
2022-11-27T21:11:44.990Z,132.50
2022-11-27T21:14:14.917Z,136.80
2022-11-27T21:16:48.274Z,148.30
2022-11-27T21:21:47.639Z,142.80
2022-11-27T21:24:15.705Z,149.70
2022-11-27T21:26:43.861Z,143.60
2022-11-27T21:29:13.217Z,151.20
2022-11-27T21:31:46.518Z,157.00
2022-11-27T21:34:15.802Z,150.40
2022-11-27T21:36:43.717Z,148.50
2022-11-27T21:39:20.803Z,158.20
2022-11-27T21:41:51.361Z,150.40
2022-11-27T21:44:20.738Z,147.20
2022-11-27T21:46:50.539Z,146.10
2022-11-27T21:49:21.018Z,144.10
2022-11-27T21:51:54.513Z,143.60
2022-11-27T21:56:52.799Z,137.70
2022-11-27T21:59:21.215Z,143.30
2022-11-27T22:01:49.721Z,140.60
2022-11-27T22:04:18.680Z,132.40
2022-11-27T22:06:47.135Z,153.60
2022-11-27T22:09:16.223Z,152.80
2022-11-27T22:11:46.714Z,153.00
2022-11-27T22:14:16.151Z,155.00
2022-11-27T22:16:47.126Z,155.40
2022-11-27T22:19:16.000Z,145.40
2022-11-27T22:21:44.886Z,145.70
2022-11-27T22:24:19.030Z,144.60
2022-11-27T22:26:49.166Z,149.30
2022-11-27T22:29:17.041Z,141.50
2022-11-27T22:31:44.957Z,140.40
2022-11-27T22:34:13.502Z,140.30
2022-11-27T22:36:41.889Z,136.80
2022-11-27T22:39:09.919Z,142.20
2022-11-27T22:41:40.183Z,142.40
2022-11-27T22:44:11.066Z,140.60
2022-11-27T22:46:41.523Z,141.70
2022-11-27T22:49:12.272Z,140.70
2022-11-27T22:51:41.793Z,139.40
2022-11-27T22:54:13.902Z,142.40
2022-11-27T22:56:41.766Z,139.10
2022-11-27T23:01:58.365Z,134.70
2022-11-27T23:04:26.758Z,135.10
2022-11-27T23:06:54.591Z,140.40
2022-11-27T23:09:22.585Z,142.80
2022-11-27T23:11:50.456Z,132.70
2022-11-27T23:14:19.063Z,129.40
2022-11-27T23:16:46.984Z,123.60
2022-11-27T23:19:15.336Z,127.10
2022-11-27T23:21:43.143Z,122.70
2022-11-27T23:24:15.629Z,134.50
2022-11-27T23:26:44.185Z,120.40
2022-11-27T23:29:12.909Z,130.20
2022-11-27T23:31:42.832Z,122.70
2022-11-27T23:34:15.466Z,118.20
2022-11-27T23:36:43.973Z,112.30
2022-11-27T23:39:13.926Z,114.00
2022-11-27T23:41:43.044Z,111.90
2022-11-27T23:44:11.218Z,122.40
2022-11-27T23:46:39.406Z,123.80
2022-11-27T23:49:07.300Z,119.00
2022-11-27T23:51:35.697Z,120.60
2022-11-27T23:54:08.400Z,122.90
2022-11-27T23:56:38.326Z,124.20
2022-11-27T23:59:06.173Z,102.20
